| Date Time MST |
Temp °F |
RH % |
DewPt °F |
Wind mph |
Dir ° |
Gust mph |
Dir ° |
Press in Hg |
Solar W/m^2 |
Prec in |
|---|---|---|---|---|---|---|---|---|---|---|
| 2026-05-06 13:30 | 40.7 | 59.4 | 27.6 | 4.4 | 151 | 8.2 | 155 | 24.933 | 894.0 | 0.02 |
| 2026-05-06 13:25 | 42.3 | 53.8 | 26.7 | 5.4 | 181 | 9.9 | 148 | 24.947 | 927.0 | 0.03 |
| 2026-05-06 13:20 | 42.7 | 50.6 | 25.6 | 1.9 | 147 | 4.6 | 186 | 24.951 | 942.0 | 0.03 |
| 2026-05-06 13:15 | 42.1 | 51.6 | 25.6 | 5.1 | 117 | 8.0 | 150 | 24.952 | 971.0 | 0.02 |
| 2026-05-06 13:10 | 43.0 | 52.2 | 26.7 | 3.0 | 262 | 6.9 | 159 | 24.955 | 1029.0 | 0.01 |
| 2026-05-06 13:05 | 44.2 | 46.5 | 25.0 | 2.0 | 187 | 7.4 | 163 | 24.956 | 1080.0 | 0.02 |
| 2026-05-06 13:00 | 41.8 | 51.8 | 25.4 | 1.6 | 4 | 3.2 | 37 | 24.958 | 1036.0 | 0.03 |
| 2026-05-06 12:55 | 40.3 | 53.9 | 24.9 | 3.1 | 140 | 5.5 | 153 | 24.959 | 588.8 | 0.02 |
| 2026-05-06 12:50 | 41.0 | 54.4 | 25.8 | 3.7 | 145 | 7.2 | 141 | 24.960 | 873.0 | 0.03 |
| 2026-05-06 12:45 | 40.6 | 52.2 | 24.5 | 3.9 | 136 | 7.0 | 160 | 24.962 | 845.0 | 0.03 |
| 2026-05-06 12:40 | 40.9 | 52.5 | 24.9 | 4.9 | 204 | 7.1 | 195 | 24.961 | 1090.0 | 0.06 |
| 2026-05-06 12:35 | 41.8 | 53.5 | 26.1 | 3.8 | 139 | 7.0 | 103 | 24.960 | 1043.0 | 0.04 |
| 2026-05-06 12:30 | 39.6 | 54.9 | 24.7 | 3.6 | 69 | 6.9 | 147 | 24.962 | 744.7 | 0.02 |
| 2026-05-06 12:25 | 42.6 | 50.7 | 25.6 | 4.6 | 138 | 6.8 | 139 | 24.962 | 701.3 | 0.02 |
| 2026-05-06 12:20 | 43.8 | 48.5 | 25.7 | 1.2 | 181 | 5.1 | 185 | 24.949 | 1079.0 | 0.02 |
| 2026-05-06 12:15 | 42.7 | 46.5 | 23.6 | 1.3 | 94 | 2.7 | 145 | 24.967 | 587.2 | 0.01 |
| 2026-05-06 12:10 | 43.1 | 44.4 | 22.8 | 1.1 | 43 | 2.2 | 358 | 24.965 | 807.0 | 0.01 |
| 2026-05-06 12:05 | 42.6 | 43.6 | 22.0 | 2.0 | 19 | 3.7 | 340 | 24.960 | 1030.0 | 0.02 |
| 2026-05-06 12:00 | 42.4 | 44.4 | 22.2 | 3.0 | 326 | 4.3 | 305 | 24.961 | 1035.0 | 0.01 |
| 2026-05-06 11:55 | 42.9 | 44.4 | 22.7 | 2.5 | 290 | 3.5 | 308 | 24.962 | 1031.0 | 0.01 |
| 2026-05-06 11:50 | 42.9 | 43.3 | 22.1 | 2.2 | 351 | 3.6 | 320 | 24.961 | 1013.0 | 0.01 |
| 2026-05-06 11:45 | 42.6 | 42.0 | 21.2 | 1.7 | 21 | 2.6 | 349 | 24.964 | 990.0 | 0.01 |
| 2026-05-06 11:40 | 44.5 | 43.3 | 23.6 | 1.8 | 349 | 2.7 | 354 | 24.962 | 969.0 | 0.00 |
| 2026-05-06 11:35 | 46.7 | 39.4 | 23.3 | 1.3 | 28 | 2.1 | 35 | 24.971 | 898.0 | 0.01 |
| 2026-05-06 11:30 | 47.0 | 36.1 | 21.5 | 0.7 | 58 | 1.8 | 57 | 24.974 | 937.0 | 0.01 |
| 2026-05-06 11:25 | 44.4 | 37.9 | 20.3 | 0.4 | 7 | 1.7 | 326 | 24.974 | 926.0 | 0.00 |
| 2026-05-06 11:20 | 40.9 | 43.4 | 20.3 | 1.1 | 347 | 3.4 | 237 | 24.976 | 923.0 | 0.00 |
| 2026-05-06 11:15 | 41.4 | 45.0 | 21.6 | 1.8 | 213 | 3.4 | 238 | 24.980 | 927.0 | 0.00 |
| 2026-05-06 11:10 | 42.1 | 44.2 | 21.8 | 1.1 | 274 | 2.4 | 262 | 24.982 | 949.0 | 0.00 |
| 2026-05-06 11:05 | 43.5 | 43.5 | 22.8 | 2.0 | 291 | 3.5 | 296 | 24.982 | 954.0 | 0.00 |
| Date Time MST |
Temp °C |
RH % |
DewPt °C |
Wind m/s |
Dir ° |
Gust m/s |
Dir ° |
Press hPa |
Solar W/m^2 |
Prec mm |
|---|---|---|---|---|---|---|---|---|---|---|
| 2026-05-06 13:30 | 4.8 | 59.4 | -2.4 | 2.0 | 151 | 3.6 | 155 | 844.33 | 894.0 | 0.51 |
| 2026-05-06 13:25 | 5.7 | 53.8 | -2.9 | 2.4 | 181 | 4.4 | 148 | 844.82 | 927.0 | 0.76 |
| 2026-05-06 13:20 | 5.9 | 50.6 | -3.5 | 0.8 | 147 | 2.0 | 186 | 844.95 | 942.0 | 0.76 |
| 2026-05-06 13:15 | 5.6 | 51.6 | -3.6 | 2.3 | 117 | 3.6 | 150 | 844.96 | 971.0 | 0.51 |
| 2026-05-06 13:10 | 6.1 | 52.2 | -2.9 | 1.3 | 262 | 3.1 | 159 | 845.07 | 1029.0 | 0.25 |
| 2026-05-06 13:05 | 6.8 | 46.5 | -3.9 | 0.9 | 187 | 3.3 | 163 | 845.12 | 1080.0 | 0.51 |
| 2026-05-06 13:00 | 5.5 | 51.8 | -3.7 | 0.7 | 4 | 1.4 | 37 | 845.19 | 1036.0 | 0.76 |
| 2026-05-06 12:55 | 4.6 | 53.9 | -4.0 | 1.4 | 140 | 2.5 | 153 | 845.21 | 588.8 | 0.51 |
| 2026-05-06 12:50 | 5.0 | 54.4 | -3.5 | 1.6 | 145 | 3.2 | 141 | 845.24 | 873.0 | 0.76 |
| 2026-05-06 12:45 | 4.8 | 52.2 | -4.2 | 1.8 | 136 | 3.1 | 160 | 845.31 | 845.0 | 0.76 |
| 2026-05-06 12:40 | 5.0 | 52.5 | -3.9 | 2.2 | 204 | 3.2 | 195 | 845.28 | 1090.0 | 1.52 |
| 2026-05-06 12:35 | 5.4 | 53.5 | -3.3 | 1.7 | 139 | 3.1 | 103 | 845.23 | 1043.0 | 1.02 |
| 2026-05-06 12:30 | 4.2 | 54.9 | -4.0 | 1.6 | 69 | 3.1 | 147 | 845.29 | 744.7 | 0.51 |
| 2026-05-06 12:25 | 5.9 | 50.7 | -3.5 | 2.0 | 138 | 3.1 | 139 | 845.31 | 701.3 | 0.51 |
| 2026-05-06 12:20 | 6.6 | 48.5 | -3.5 | 0.5 | 181 | 2.3 | 185 | 844.88 | 1079.0 | 0.51 |
| 2026-05-06 12:15 | 5.9 | 46.5 | -4.7 | 0.6 | 94 | 1.2 | 145 | 845.47 | 587.2 | 0.25 |
| 2026-05-06 12:10 | 6.2 | 44.4 | -5.1 | 0.5 | 43 | 1.0 | 358 | 845.42 | 807.0 | 0.25 |
| 2026-05-06 12:05 | 5.9 | 43.6 | -5.6 | 0.9 | 19 | 1.6 | 340 | 845.24 | 1030.0 | 0.51 |
| 2026-05-06 12:00 | 5.8 | 44.4 | -5.5 | 1.3 | 326 | 1.9 | 305 | 845.29 | 1035.0 | 0.25 |
| 2026-05-06 11:55 | 6.0 | 44.4 | -5.2 | 1.1 | 290 | 1.5 | 308 | 845.32 | 1031.0 | 0.25 |
| 2026-05-06 11:50 | 6.0 | 43.3 | -5.5 | 1.0 | 351 | 1.6 | 320 | 845.29 | 1013.0 | 0.25 |
| 2026-05-06 11:45 | 5.9 | 42.0 | -6.0 | 0.7 | 21 | 1.2 | 349 | 845.39 | 990.0 | 0.25 |
| 2026-05-06 11:40 | 7.0 | 43.3 | -4.7 | 0.8 | 349 | 1.2 | 354 | 845.32 | 969.0 | 0.00 |
| 2026-05-06 11:35 | 8.2 | 39.4 | -4.8 | 0.6 | 28 | 0.9 | 35 | 845.60 | 898.0 | 0.25 |
| 2026-05-06 11:30 | 8.3 | 36.1 | -5.8 | 0.3 | 58 | 0.8 | 57 | 845.70 | 937.0 | 0.25 |
| 2026-05-06 11:25 | 6.9 | 37.9 | -6.5 | 0.2 | 7 | 0.8 | 326 | 845.71 | 926.0 | 0.00 |
| 2026-05-06 11:20 | 5.0 | 43.4 | -6.5 | 0.5 | 347 | 1.5 | 237 | 845.77 | 923.0 | 0.00 |
| 2026-05-06 11:15 | 5.2 | 45.0 | -5.8 | 0.8 | 213 | 1.5 | 238 | 845.93 | 927.0 | 0.00 |
| 2026-05-06 11:10 | 5.6 | 44.2 | -5.6 | 0.5 | 274 | 1.1 | 262 | 845.97 | 949.0 | 0.00 |
| 2026-05-06 11:05 | 6.4 | 43.5 | -5.1 | 0.9 | 291 | 1.6 | 296 | 846.00 | 954.0 | 0.00 |